Stacy, NC (28581)

5:22 PM EDT on September 19, 2014 (GMT -0400)
Core Sound's 2 West Shore Heel of Rock Jetty | Change Station
CLOSE
Current Station
Personal Weather Station
Location: Davis, NC
Elevation: 13 ft
Nearby Weather Stations

Elev 13 ft 34.80 °N, 76.46 °W | Updated 21 minutes ago

Clear
Clear
75.3 °F
Feels Like 76 °F
N
20.0
Wind Variable Wind from North
Gusts 20.0 mph

Today
High -- | Low -- °F
--% Chance of Precip.
Yesterday
High -- | Low -- °F
Precip. -- in
6:51 AM 7:06 PM
Waning Crescent, 17% visible
Pressure 30.18 in
Visibility 8.0 miles
Clouds Clear
Heat Index 76 °F
Dew Point 67 °F
Humidity 76%
Rainfall 0.00 in
Snow Depth Not available.
UV 2 out of 12
Pollen 5.50 out of 12
Air Quality Not available.
Flu Activity Not available.
METAR KNBT 192056Z AUTO 05015G23KT 8SM CLR 25/17 A3016 RMK AO2 SLP218 6//// T02500172 55000 PNO

More Conditions Fewer Conditions

Pressure 30.18 in
Visibility 8.0 miles
Clouds Clear
Heat Index 76 °F
Dew Point 67 °F
Humidity 76%
Rainfall 0.00 in
Snow Depth Not available.
UV 2 out of 12
Pollen 5.50 out of 12
Air Quality Not available.
Flu Activity Not available.
METAR KNBT 192056Z AUTO 05015G23KT 8SM CLR 25/17 A3016 RMK AO2 SLP218 6//// T02500172 55000 PNO

More Conditions Fewer Conditions

10-Day Weather Forecast

Almanac

Astronomy

Sep. 19, 2014 Rise Set
Actual Time 6:51 AM EDT 7:06 PM EDT
Civil Twilight 6:26 AM EDT 7:32 PM EDT
Nautical Twilight 5:56 AM EDT 8:01 PM EDT
Astronomical Twilight 5:26 AM EDT 8:31 PM EDT
Moon 2:42 AM EDT 4:27 PM EDT
Length of Visible Light 13h 05m
Length of Day
12h 15m
Tomorrow will be 2m 10s shorter.
Waning Crescent, 17% of the Moon is Illuminated
Today
Waning Crescent
Sep 24
New
Oct 1
First Quarter
Oct 8
Full
Oct 15
Last Quarter

Today's Extremes

State Highs State Lows

Community

WunderPhotos

Upload Photos

1,754,703 photos uploaded!

WunderBlogs® & News

By Dr. Jeff Masters
Director of Meteorology, Weather Underground
By Kari Strenfel
Meteorologist, Weather Underground
By Christopher C. Burt
Weather Historian, Weather Underground
September 19, 2014
September 19, 2014
September 19, 2014

Nearby

Snow Depth

Station Depth Elevation
No new snow has been reported.

Earthquake Activity

City Distance Mag. Time & Date
No recent earthquake activity has been reported nearby.
Minimum magnitude displayed is 2.5.

Coastal Water Temperatures

Place Temperature
Beaufort, NC 77.0 °F
Hatteras, NC 75.0 °F
Oregon Inlet Marina, NC 73.9 °F
Duck Pier, NC 75.0 °F
Johnny Mercer Pier, Wrightsville Beach, NC 81.0 °F

Nearby Weather Stations